Terminal Aerodrome Forecast
Issued by NWS Wilmington, OH

Current Version | Previous Version | Graphics & Text | Print | Product List | Glossary On
Versions: 1 2 3 4 5 6 7 8 9 10 11 12 13 14 15 16 17 18 19 20 21 22 23 24 25
000
FTUS41 KILN 211700 AAB
TAFDAY
TAF AMD
KDAY 211708Z 2117/2212 23008KT 5SM -SHRA SCT050 OVC100
      TEMPO 2117/2118 2SM TSRA BR BKN050CB
     FM211800 24009KT P6SM SCT022 OVC080
      TEMPO 2118/2120 BKN022
     FM220000 22006KT P6SM SCT050 BKN150
     FM220900 23006KT P6SM VCTS OVC040CB=

USA.gov is the U.S. government's official web portal to all federal, state and local government web resources and services.